AFR789 KMIA-TFFR
Flight info
| Callsign | AFR789 |
|---|---|
| Flight time | N/A |
| Altitude | 37000 |
| Route | KLADA2 BITAC Y290 HAGIT Y421 MEEGL DCT MODUX R888 GORET GORET2A |
| Aircraft | B77W/H-SDE1E2E3FGHIJ2J3J4J5M1RWXY/LB1D1 |
Departure
| Time | N/A |
|---|---|
| Airport | Miami International Airport (KMIA) |
Arrival
| Time | 2026-04-25 09:37 |
|---|---|
| Airport | Maryse Condé International Airport (TFFR) |
| Time | Latitude | Longitude | Altitude | Speed | Heading |
|---|---|---|---|---|---|
| 2026-04-25 09:24 | 16.56844 | -62.17968 | 10148 ft | 302 kts | 116° |
| 2026-04-25 09:25 | 16.55772 | -62.16125 | 9779 ft | 292 kts | 131° |
| 2026-04-25 09:25 | 16.54404 | -62.14626 | 9576 ft | 285 kts | 134° |
| 2026-04-25 09:25 | 16.53013 | -62.13160 | 9336 ft | 280 kts | 134° |
| 2026-04-25 09:25 | 16.51655 | -62.11733 | 9098 ft | 276 kts | 134° |
| 2026-04-25 09:26 | 16.50310 | -62.10319 | 8860 ft | 272 kts | 134° |
| 2026-04-25 09:26 | 16.48983 | -62.08924 | 8624 ft | 268 kts | 134° |
| 2026-04-25 09:26 | 16.47680 | -62.07555 | 8414 ft | 264 kts | 134° |
| 2026-04-25 09:26 | 16.46411 | -62.06221 | 8254 ft | 261 kts | 134° |
| 2026-04-25 09:27 | 16.45141 | -62.04889 | 8090 ft | 257 kts | 134° |
| 2026-04-25 09:27 | 16.43876 | -62.03559 | 7922 ft | 254 kts | 134° |
| 2026-04-25 09:27 | 16.42633 | -62.02253 | 7747 ft | 250 kts | 134° |
| 2026-04-25 09:27 | 16.41405 | -62.00964 | 7543 ft | 246 kts | 134° |
| 2026-04-25 09:28 | 16.40206 | -61.99704 | 7341 ft | 241 kts | 134° |
| 2026-04-25 09:28 | 16.39029 | -61.98469 | 7139 ft | 237 kts | 134° |
| 2026-04-25 09:28 | 16.37883 | -61.97267 | 6938 ft | 232 kts | 134° |
| 2026-04-25 09:28 | 16.36737 | -61.96064 | 6732 ft | 228 kts | 134° |
| 2026-04-25 09:29 | 16.35700 | -61.94846 | 6529 ft | 224 kts | 126° |
| 2026-04-25 09:29 | 16.34857 | -61.93481 | 6323 ft | 220 kts | 118° |
| 2026-04-25 09:29 | 16.34208 | -61.92054 | 6103 ft | 217 kts | 112° |
| 2026-04-25 09:29 | 16.33705 | -61.90590 | 5864 ft | 215 kts | 108° |
| 2026-04-25 09:30 | 16.33294 | -61.89084 | 5626 ft | 214 kts | 105° |
| 2026-04-25 09:30 | 16.32948 | -61.87584 | 5394 ft | 213 kts | 104° |
| 2026-04-25 09:30 | 16.32636 | -61.86076 | 5188 ft | 211 kts | 103° |
| 2026-04-25 09:30 | 16.32350 | -61.84613 | 5060 ft | 204 kts | 103° |
| 2026-04-25 09:31 | 16.32083 | -61.83189 | 4937 ft | 197 kts | 103° |
| 2026-04-25 09:31 | 16.31913 | -61.82265 | 4855 ft | 192 kts | 102° |
| 2026-04-25 09:31 | 16.31590 | -61.80480 | 4697 ft | 188 kts | 102° |
| 2026-04-25 09:31 | 16.31347 | -61.79138 | 4577 ft | 188 kts | 102° |
| 2026-04-25 09:32 | 16.31103 | -61.77800 | 4489 ft | 187 kts | 102° |
| 2026-04-25 09:32 | 16.30861 | -61.76482 | 4389 ft | 189 kts | 102° |
| 2026-04-25 09:32 | 16.30611 | -61.75126 | 4135 ft | 190 kts | 103° |
| 2026-04-25 09:32 | 16.30361 | -61.73776 | 3883 ft | 190 kts | 103° |
| 2026-04-25 09:33 | 16.30111 | -61.72430 | 3630 ft | 190 kts | 102° |
| 2026-04-25 09:33 | 16.29863 | -61.71089 | 3378 ft | 190 kts | 102° |
| 2026-04-25 09:33 | 16.29610 | -61.69731 | 3121 ft | 191 kts | 102° |
| 2026-04-25 09:33 | 16.29358 | -61.68373 | 2863 ft | 192 kts | 102° |
| 2026-04-25 09:34 | 16.29106 | -61.67013 | 2608 ft | 187 kts | 102° |
| 2026-04-25 09:34 | 16.28871 | -61.65751 | 2360 ft | 172 kts | 102° |
| 2026-04-25 09:34 | 16.28651 | -61.64568 | 2131 ft | 162 kts | 103° |
| 2026-04-25 09:34 | 16.28440 | -61.63434 | 1908 ft | 155 kts | 103° |
| 2026-04-25 09:35 | 16.28245 | -61.62385 | 1705 ft | 145 kts | 103° |
| 2026-04-25 09:35 | 16.28055 | -61.61366 | 1502 ft | 142 kts | 102° |
| 2026-04-25 09:35 | 16.27868 | -61.60352 | 1298 ft | 142 kts | 102° |
| 2026-04-25 09:35 | 16.27680 | -61.59347 | 1105 ft | 143 kts | 102° |
| 2026-04-25 09:36 | 16.27489 | -61.58325 | 885 ft | 145 kts | 101° |
| 2026-04-25 09:36 | 16.27297 | -61.57287 | 669 ft | 147 kts | 101° |
| 2026-04-25 09:36 | 16.27099 | -61.56238 | 459 ft | 149 kts | 101° |
| 2026-04-25 09:36 | 16.26907 | -61.55182 | 244 ft | 147 kts | 101° |
| 2026-04-25 09:37 | 16.26710 | -61.54153 | 64 ft | 143 kts | 100° |
| 2026-04-25 09:37 | 16.26548 | -61.53283 | 58 ft | 96 kts | 101° |
| 2026-04-25 09:37 | 16.26456 | -61.52786 | 57 ft | 47 kts | 101° |
| 2026-04-25 09:37 | 16.26401 | -61.52496 | 56 ft | 35 kts | 101° |
| 2026-04-25 09:38 | 16.26364 | -61.52306 | 56 ft | 8 kts | 102° |
| 2026-04-25 09:38 | 16.26360 | -61.52248 | 56 ft | 7 kts | 71° |
| 2026-04-25 09:38 | 16.26401 | -61.52230 | 56 ft | 6 kts | 8° |
| 2026-04-25 09:38 | 16.26452 | -61.52222 | 56 ft | 7 kts | 8° |
| 2026-04-25 09:39 | 16.26507 | -61.52213 | 56 ft | 8 kts | 8° |
| 2026-04-25 09:39 | 16.26575 | -61.52202 | 56 ft | 10 kts | 10° |
| 2026-04-25 09:39 | 16.26647 | -61.52188 | 56 ft | 10 kts | 10° |
| 2026-04-25 09:40 | 16.26731 | -61.52255 | 56 ft | 9 kts | 277° |
| 2026-04-25 09:40 | 16.26743 | -61.52325 | 56 ft | 9 kts | 280° |
| 2026-04-25 09:40 | 16.26756 | -61.52395 | 56 ft | 9 kts | 281° |
| 2026-04-25 09:40 | 16.26769 | -61.52466 | 57 ft | 10 kts | 281° |
| 2026-04-25 09:41 | 16.26782 | -61.52537 | 57 ft | 10 kts | 281° |
| 2026-04-25 09:41 | 16.26795 | -61.52609 | 57 ft | 10 kts | 281° |
| 2026-04-25 09:41 | 16.26808 | -61.52681 | 57 ft | 10 kts | 281° |
| 2026-04-25 09:41 | 16.26822 | -61.52754 | 57 ft | 10 kts | 281° |
| 2026-04-25 09:42 | 16.26833 | -61.52811 | 57 ft | 7 kts | 283° |
| 2026-04-25 09:42 | 16.26866 | -61.52829 | 57 ft | 5 kts | 1° |
| 2026-04-25 09:42 | 16.26901 | -61.52824 | 57 ft | 3 kts | 10° |
| 2026-04-25 09:42 | 16.26923 | -61.52820 | 57 ft | 2 kts | 11° |
| 2026-04-25 09:43 | 16.26925 | -61.52819 | 57 ft | 0 kts | 11° |